createdAt,value
2022-12-16T00:01:42.142Z,39.97
2022-12-16T00:04:10.083Z,38.40
2022-12-16T00:06:37.934Z,40.47
2022-12-16T00:09:05.804Z,38.33
2022-12-16T00:11:34.080Z,38.92
2022-12-16T00:14:01.981Z,39.42
2022-12-16T00:16:31.367Z,37.42
2022-12-16T00:19:01.166Z,37.72
2022-12-16T00:21:29.805Z,37.28
2022-12-16T00:23:58.145Z,38.00
2022-12-16T00:26:26.509Z,37.95
2022-12-16T00:28:54.764Z,34.78
2022-12-16T00:31:22.831Z,36.20
2022-12-16T00:33:53.063Z,34.95
2022-12-16T00:36:20.925Z,35.10
2022-12-16T00:38:49.001Z,36.30
2022-12-16T00:41:16.938Z,35.20
2022-12-16T00:43:44.872Z,35.60
2022-12-16T00:46:12.752Z,35.20
2022-12-16T00:48:40.813Z,32.45
2022-12-16T00:51:10.526Z,34.17
2022-12-16T00:53:38.476Z,33.75
2022-12-16T00:56:09.034Z,32.42
2022-12-16T00:58:37.456Z,30.63
2022-12-16T01:01:06.163Z,30.42
2022-12-16T01:03:34.945Z,30.38
2022-12-16T01:06:03.466Z,31.08
2022-12-16T01:08:32.722Z,29.63
2022-12-16T01:11:00.734Z,31.52
2022-12-16T01:13:28.580Z,30.33
2022-12-16T01:15:56.616Z,30.95
2022-12-16T01:18:24.500Z,31.23
2022-12-16T01:20:52.661Z,34.55
2022-12-16T01:23:22.849Z,34.17
2022-12-16T01:25:57.811Z,35.03
2022-12-16T01:28:25.793Z,37.58
2022-12-16T01:30:57.174Z,35.22
2022-12-16T01:33:25.550Z,36.00
2022-12-16T01:36:00.026Z,35.45
2022-12-16T01:38:28.032Z,36.10
2022-12-16T01:40:57.712Z,33.83
2022-12-16T01:43:29.391Z,34.45
2022-12-16T01:46:01.546Z,33.35
2022-12-16T01:48:40.171Z,33.60
2022-12-16T01:51:12.283Z,34.10
2022-12-16T01:53:42.886Z,34.17
2022-12-16T01:56:16.329Z,34.55
2022-12-16T01:58:46.339Z,35.75
2022-12-16T02:01:15.889Z,35.42
2022-12-16T02:03:44.532Z,36.30
2022-12-16T02:06:12.451Z,35.40
2022-12-16T02:08:40.357Z,35.47
2022-12-16T02:11:36.286Z,35.05
2022-12-16T02:14:28.726Z,33.25
2022-12-16T02:17:01.809Z,32.63
2022-12-16T02:19:58.018Z,32.83
2022-12-16T02:22:36.027Z,32.30
2022-12-16T02:25:45.386Z,33.25
2022-12-16T02:28:33.625Z,31.23
2022-12-16T02:31:20.920Z,30.85
2022-12-16T02:33:58.220Z,32.72
2022-12-16T02:36:43.370Z,31.50
2022-12-16T02:39:15.454Z,33.60
2022-12-16T02:41:48.625Z,32.55
2022-12-16T02:44:18.053Z,32.90
2022-12-16T02:46:54.002Z,32.85
2022-12-16T02:49:55.060Z,32.40
2022-12-16T02:52:25.774Z,32.35
2022-12-16T02:54:57.249Z,32.10
2022-12-16T02:57:51.613Z,32.08
2022-12-16T03:00:22.108Z,32.08
2022-12-16T03:02:58.247Z,32.42
2022-12-16T03:05:31.288Z,32.17
2022-12-16T03:08:03.716Z,32.80
2022-12-16T03:10:37.769Z,31.13
2022-12-16T03:13:08.517Z,29.38
2022-12-16T03:15:37.445Z,27.65
2022-12-16T03:18:10.319Z,27.23
2022-12-16T03:20:42.567Z,27.33
2022-12-16T03:23:23.079Z,28.10
2022-12-16T03:25:56.015Z,25.50
2022-12-16T03:28:34.387Z,26.63
2022-12-16T03:31:10.221Z,26.50
2022-12-16T03:33:43.833Z,25.73
2022-12-16T03:36:15.794Z,27.67
2022-12-16T03:38:48.264Z,27.13
2022-12-16T03:41:18.511Z,25.77
2022-12-16T03:43:48.497Z,27.23
2022-12-16T03:46:18.263Z,26.25
2022-12-16T03:51:16.012Z,27.95
2022-12-16T03:53:43.988Z,28.33
2022-12-16T03:56:12.805Z,27.75
2022-12-16T03:58:41.179Z,28.42
2022-12-16T04:01:10.528Z,28.05
2022-12-16T04:03:39.052Z,29.00
2022-12-16T04:06:09.165Z,30.25
2022-12-16T04:08:37.101Z,29.85
2022-12-16T04:11:22.624Z,30.30
2022-12-16T04:14:07.854Z,30.63
2022-12-16T04:16:53.882Z,31.17
2022-12-16T04:19:43.547Z,28.85
2022-12-16T04:22:34.163Z,29.98
2022-12-16T04:25:05.666Z,28.50
2022-12-16T04:27:33.728Z,27.70
2022-12-16T04:30:18.918Z,29.83
2022-12-16T04:33:04.796Z,28.88
2022-12-16T04:35:50.219Z,29.98
2022-12-16T04:38:37.172Z,28.70
2022-12-16T04:41:23.002Z,27.95
2022-12-16T04:44:08.512Z,26.42
2022-12-16T04:46:54.075Z,29.75
2022-12-16T04:49:43.024Z,29.02
2022-12-16T04:52:28.667Z,29.45
2022-12-16T04:55:16.227Z,29.40
2022-12-16T04:58:03.455Z,29.83
2022-12-16T05:00:48.724Z,29.88
2022-12-16T05:03:34.438Z,29.23
2022-12-16T05:06:20.205Z,28.55
2022-12-16T05:09:05.376Z,30.15
2022-12-16T05:11:52.127Z,28.83
2022-12-16T05:14:38.288Z,30.55
2022-12-16T05:17:22.866Z,31.05
2022-12-16T05:20:09.010Z,29.73
2022-12-16T05:22:54.151Z,29.95
2022-12-16T05:25:40.226Z,28.85
2022-12-16T05:28:27.131Z,28.23
2022-12-16T05:31:12.792Z,30.80
2022-12-16T05:33:58.014Z,29.17
2022-12-16T05:36:43.280Z,28.15
2022-12-16T05:39:28.594Z,28.52
2022-12-16T05:42:14.269Z,27.00
2022-12-16T05:45:01.121Z,28.20
2022-12-16T05:47:46.739Z,28.42
2022-12-16T05:50:32.260Z,31.02
2022-12-16T05:53:28.134Z,47.75
2022-12-16T05:56:14.150Z,37.15
2022-12-16T05:58:59.446Z,35.53
2022-12-16T06:01:46.115Z,32.60
2022-12-16T06:04:31.582Z,32.28
2022-12-16T06:07:17.069Z,32.70
2022-12-16T06:10:04.127Z,36.85
2022-12-16T06:12:49.797Z,33.40
2022-12-16T06:15:37.714Z,31.73
2022-12-16T06:18:21.087Z,33.20
2022-12-16T06:21:06.508Z,29.80
2022-12-16T06:23:51.794Z,31.83
2022-12-16T06:26:37.476Z,31.60
2022-12-16T06:29:22.783Z,30.02
2022-12-16T06:32:08.012Z,32.72
2022-12-16T06:34:55.127Z,31.02
2022-12-16T06:37:40.459Z,33.42
2022-12-16T06:40:27.430Z,35.47
2022-12-16T06:43:12.932Z,33.33
2022-12-16T06:45:58.715Z,31.27
2022-12-16T06:48:44.404Z,32.95
2022-12-16T06:51:31.356Z,31.48
2022-12-16T06:54:17.174Z,31.90
2022-12-16T06:57:02.400Z,32.65
2022-12-16T06:59:48.030Z,34.88
2022-12-16T07:02:33.320Z,35.47
2022-12-16T07:05:19.017Z,36.78
2022-12-16T07:08:09.657Z,34.45
2022-12-16T07:11:01.213Z,32.60
2022-12-16T07:13:54.465Z,35.70
2022-12-16T07:16:36.331Z,35.45
2022-12-16T07:19:21.803Z,34.17
2022-12-16T07:22:07.147Z,33.53
2022-12-16T07:24:55.402Z,33.97
2022-12-16T07:27:40.995Z,33.97
2022-12-16T07:30:30.364Z,32.92
2022-12-16T07:33:16.299Z,31.77
2022-12-16T07:36:01.986Z,33.80
2022-12-16T07:38:47.693Z,34.28
2022-12-16T07:41:34.577Z,35.80
2022-12-16T07:44:23.329Z,38.80
2022-12-16T07:47:08.517Z,38.35
2022-12-16T07:49:55.394Z,40.40
2022-12-16T07:52:41.704Z,41.33
2022-12-16T07:55:27.859Z,37.67
2022-12-16T07:58:14.651Z,37.97
2022-12-16T08:01:02.747Z,37.75
2022-12-16T08:03:51.972Z,37.20
2022-12-16T08:06:40.420Z,37.50
2022-12-16T08:09:26.181Z,37.72
2022-12-16T08:12:11.357Z,43.65
2022-12-16T08:14:58.101Z,45.92
2022-12-16T08:17:43.514Z,43.63
2022-12-16T08:20:29.066Z,43.45
2022-12-16T08:23:14.457Z,43.17
2022-12-16T08:26:03.411Z,50.92
2022-12-16T08:28:48.573Z,55.47
2022-12-16T08:31:35.448Z,55.97
2022-12-16T08:34:20.715Z,54.10
2022-12-16T08:37:06.319Z,52.63
2022-12-16T08:40:11.056Z,53.67
2022-12-16T08:42:57.676Z,60.53
2022-12-16T08:45:43.085Z,66.30
2022-12-16T08:48:30.250Z,67.60
2022-12-16T08:51:16.943Z,67.43
2022-12-16T08:54:02.203Z,65.45
2022-12-16T08:56:47.718Z,62.88
2022-12-16T08:59:33.428Z,62.47
2022-12-16T09:02:19.402Z,61.50
2022-12-16T09:05:06.743Z,60.55
2022-12-16T09:07:52.788Z,53.28
2022-12-16T09:10:40.827Z,47.10
2022-12-16T09:13:27.894Z,43.45
2022-12-16T09:16:11.950Z,41.55
2022-12-16T09:19:01.120Z,39.15
2022-12-16T09:21:44.391Z,39.17
2022-12-16T09:24:29.836Z,38.78
2022-12-16T09:27:15.609Z,36.95
2022-12-16T09:30:12.440Z,37.45
2022-12-16T09:33:05.936Z,38.55
2022-12-16T09:35:51.523Z,46.42
2022-12-16T09:38:38.495Z,34.25
2022-12-16T09:41:44.759Z,38.63
2022-12-16T09:44:39.431Z,38.53
2022-12-16T09:47:35.380Z,37.20
2022-12-16T09:50:21.193Z,36.75
2022-12-16T09:53:11.332Z,37.95
2022-12-16T09:55:59.915Z,37.47
2022-12-16T09:58:48.546Z,38.08
2022-12-16T10:01:34.822Z,36.85
2022-12-16T10:04:21.435Z,37.35
2022-12-16T10:07:10.416Z,40.63
2022-12-16T10:10:04.876Z,38.63
2022-12-16T10:13:02.015Z,36.42
2022-12-16T10:15:55.000Z,32.92
2022-12-16T10:19:00.578Z,32.65
2022-12-16T10:21:51.827Z,32.95
2022-12-16T10:24:49.257Z,31.65
2022-12-16T10:27:35.483Z,34.65
2022-12-16T10:30:30.633Z,33.67
2022-12-16T10:33:16.797Z,32.50
2022-12-16T10:36:06.419Z,30.73
2022-12-16T10:39:11.631Z,31.27
2022-12-16T10:42:01.850Z,29.98
2022-12-16T10:44:54.453Z,30.92
2022-12-16T10:47:43.421Z,29.63
2022-12-16T10:50:33.028Z,31.70
2022-12-16T10:53:21.978Z,31.13
2022-12-16T10:56:23.147Z,31.42
2022-12-16T10:59:12.278Z,32.08
2022-12-16T11:01:58.689Z,31.97
2022-12-16T11:04:55.532Z,35.78
2022-12-16T11:08:10.920Z,34.35
2022-12-16T11:10:58.948Z,34.92
2022-12-16T11:13:46.850Z,33.47
2022-12-16T11:16:38.090Z,33.88
2022-12-16T11:19:38.299Z,36.03
2022-12-16T11:22:32.972Z,35.00
2022-12-16T11:25:32.011Z,35.80
2022-12-16T11:28:30.082Z,36.08
2022-12-16T11:31:19.389Z,33.83
2022-12-16T11:34:05.231Z,34.55
2022-12-16T11:37:03.855Z,33.00
2022-12-16T11:39:55.200Z,32.10
2022-12-16T11:42:45.241Z,34.63
2022-12-16T11:45:34.171Z,34.28
2022-12-16T11:48:30.130Z,34.70
2022-12-16T11:51:16.898Z,33.95
2022-12-16T11:54:06.633Z,34.60
2022-12-16T11:56:56.884Z,37.10
2022-12-16T11:59:48.749Z,37.03
2022-12-16T12:02:39.503Z,35.25
2022-12-16T12:05:25.500Z,31.60
2022-12-16T12:08:16.868Z,29.80
2022-12-16T12:11:15.851Z,28.83
2022-12-16T12:14:23.520Z,29.35
2022-12-16T12:17:21.107Z,29.38
2022-12-16T12:20:19.614Z,28.05
2022-12-16T12:23:05.936Z,27.80
2022-12-16T12:26:04.674Z,27.70
2022-12-16T12:29:02.756Z,27.95
2022-12-16T12:31:58.230Z,28.00
2022-12-16T12:34:51.028Z,28.38
2022-12-16T12:37:43.447Z,26.48
2022-12-16T12:40:40.507Z,24.60
2022-12-16T12:43:36.431Z,23.90
2022-12-16T12:46:30.184Z,25.38
2022-12-16T12:49:25.961Z,25.00
2022-12-16T12:52:24.752Z,24.65
2022-12-16T12:55:18.333Z,25.20
2022-12-16T12:58:06.513Z,26.70
2022-12-16T13:00:58.365Z,24.88
2022-12-16T13:04:09.086Z,24.42
2022-12-16T13:06:57.070Z,25.73
2022-12-16T13:09:46.651Z,25.80
2022-12-16T13:12:47.594Z,25.75
2022-12-16T13:15:39.969Z,28.30
2022-12-16T13:18:46.910Z,29.67
2022-12-16T13:22:04.856Z,28.33
2022-12-16T13:25:02.884Z,27.85
2022-12-16T13:28:04.164Z,26.63
2022-12-16T13:30:52.461Z,26.38
2022-12-16T13:33:49.111Z,27.67
2022-12-16T13:36:36.438Z,27.90
2022-12-16T13:39:41.173Z,29.60
2022-12-16T13:43:06.387Z,29.90
2022-12-16T13:45:55.014Z,27.50
2022-12-16T13:48:56.229Z,29.55
2022-12-16T13:52:24.471Z,28.70
2022-12-16T13:55:30.616Z,27.90
2022-12-16T13:58:24.385Z,29.65
2022-12-16T14:01:25.169Z,28.98
2022-12-16T14:04:22.967Z,29.52
2022-12-16T14:07:09.513Z,28.13
2022-12-16T14:10:00.934Z,29.48
2022-12-16T14:13:14.504Z,28.55
2022-12-16T14:16:16.614Z,27.73
2022-12-16T14:19:15.135Z,19.67
2022-12-16T14:22:08.106Z,19.65
2022-12-16T14:24:57.042Z,18.25
2022-12-16T14:27:44.193Z,17.70
2022-12-16T14:30:37.635Z,18.33
2022-12-16T14:33:43.098Z,19.63
2022-12-16T14:36:40.455Z,18.42
2022-12-16T14:39:30.981Z,18.30
2022-12-16T14:42:20.062Z,17.15
2022-12-16T14:45:06.263Z,17.52
2022-12-16T14:47:53.068Z,17.15
2022-12-16T14:50:41.096Z,32.25
2022-12-16T14:53:37.561Z,29.73
2022-12-16T14:56:37.595Z,23.25
2022-12-16T14:59:32.765Z,18.70
2022-12-16T15:02:32.051Z,16.80
2022-12-16T15:05:19.830Z,23.45
2022-12-16T15:08:05.426Z,21.83
2022-12-16T15:10:52.277Z,19.83
2022-12-16T15:13:41.032Z,17.88
2022-12-16T15:16:36.627Z,21.05
2022-12-16T15:19:24.741Z,20.85
2022-12-16T15:22:12.007Z,19.23
2022-12-16T15:24:57.861Z,19.77
2022-12-16T15:27:45.634Z,19.63
2022-12-16T15:30:58.324Z,22.50
2022-12-16T15:33:46.294Z,19.30
2022-12-16T15:36:47.000Z,18.08
2022-12-16T15:39:40.419Z,18.33
2022-12-16T15:42:38.881Z,19.05
2022-12-16T15:45:35.660Z,18.35
2022-12-16T15:48:30.605Z,18.33
2022-12-16T15:51:16.315Z,17.65
2022-12-16T15:54:01.512Z,18.20
2022-12-16T15:57:05.792Z,17.77
2022-12-16T15:59:54.114Z,20.60
2022-12-16T16:02:42.159Z,32.33
2022-12-16T16:05:33.659Z,27.45
2022-12-16T16:08:19.748Z,28.40
2022-12-16T16:11:05.236Z,27.77
2022-12-16T16:13:52.034Z,24.58
2022-12-16T16:16:38.119Z,32.58
2022-12-16T16:19:30.544Z,25.63
2022-12-16T16:22:15.844Z,26.42
2022-12-16T16:24:57.636Z,24.33
2022-12-16T16:27:45.936Z,23.05
2022-12-16T16:30:33.133Z,21.67
2022-12-16T16:33:18.585Z,22.90
2022-12-16T16:36:04.397Z,22.23
2022-12-16T16:38:50.107Z,22.20
2022-12-16T16:41:35.792Z,22.30
2022-12-16T16:44:21.077Z,23.52
2022-12-16T16:47:07.829Z,26.35
2022-12-16T16:49:56.529Z,23.63
2022-12-16T16:52:43.986Z,22.75
2022-12-16T16:55:34.185Z,21.90
2022-12-16T16:58:20.018Z,21.23
2022-12-16T17:01:05.660Z,21.45
2022-12-16T17:04:03.828Z,20.52
2022-12-16T17:06:49.547Z,17.92
2022-12-16T17:09:35.025Z,18.05
2022-12-16T17:12:20.550Z,18.15
2022-12-16T17:15:05.655Z,17.65
2022-12-16T17:17:51.481Z,17.35
2022-12-16T17:20:38.342Z,17.58
2022-12-16T17:23:23.484Z,17.95
2022-12-16T17:26:08.789Z,17.98
2022-12-16T17:28:53.995Z,18.00
2022-12-16T17:31:39.723Z,22.83
2022-12-16T17:34:25.083Z,22.23
2022-12-16T17:37:20.183Z,28.40
2022-12-16T17:40:05.414Z,28.52
2022-12-16T17:42:50.599Z,31.30
2022-12-16T17:45:35.999Z,26.15
2022-12-16T17:48:21.296Z,25.15
2022-12-16T17:51:03.149Z,24.85
2022-12-16T17:53:52.523Z,24.38
2022-12-16T17:56:41.164Z,21.63
2022-12-16T17:59:27.555Z,22.48
2022-12-16T18:02:13.365Z,22.45
2022-12-16T18:04:58.967Z,21.00
2022-12-16T18:07:44.573Z,21.75
2022-12-16T18:10:31.361Z,21.83
2022-12-16T18:13:16.710Z,20.98
2022-12-16T18:16:01.973Z,24.58
2022-12-16T18:18:47.193Z,23.00
2022-12-16T18:21:32.975Z,22.02
2022-12-16T18:24:18.130Z,23.67
2022-12-16T18:27:04.770Z,22.77
2022-12-16T18:29:49.954Z,23.05
2022-12-16T18:32:35.606Z,23.17
2022-12-16T18:35:21.039Z,22.63
2022-12-16T18:38:06.184Z,20.40
2022-12-16T18:40:54.043Z,21.65
2022-12-16T18:43:40.909Z,24.70
2022-12-16T18:46:26.160Z,23.55
2022-12-16T18:49:11.840Z,23.02
2022-12-16T18:51:57.167Z,24.10
2022-12-16T18:54:42.472Z,25.80
2022-12-16T18:57:27.601Z,24.38
2022-12-16T19:00:14.524Z,25.20
2022-12-16T19:03:00.063Z,25.40
2022-12-16T19:05:45.721Z,25.25
2022-12-16T19:08:31.256Z,27.42
2022-12-16T19:11:17.554Z,25.25
2022-12-16T19:14:02.644Z,26.92
2022-12-16T19:16:49.384Z,26.90
2022-12-16T19:19:34.599Z,27.02
2022-12-16T19:22:19.819Z,26.58
2022-12-16T19:25:05.103Z,26.65
2022-12-16T19:27:50.734Z,26.10
2022-12-16T19:30:47.640Z,27.38
2022-12-16T19:33:34.539Z,26.33
2022-12-16T19:36:19.826Z,27.65
2022-12-16T19:39:05.152Z,24.85
2022-12-16T19:41:50.605Z,27.83
2022-12-16T19:44:37.985Z,27.15
2022-12-16T19:47:23.529Z,28.10
2022-12-16T19:50:10.535Z,27.85
2022-12-16T19:52:52.427Z,26.05
2022-12-16T19:55:54.285Z,26.17
2022-12-16T19:58:41.799Z,26.13
2022-12-16T20:04:34.686Z,24.17
2022-12-16T20:10:27.095Z,22.50
2022-12-16T20:13:14.592Z,28.98
2022-12-16T20:18:48.035Z,22.38
2022-12-16T20:21:33.413Z,22.00
2022-12-16T20:24:34.837Z,22.15
2022-12-16T20:27:20.432Z,21.75
2022-12-16T20:30:05.607Z,22.80
2022-12-16T20:32:51.297Z,21.27
2022-12-16T20:35:37.030Z,25.17
2022-12-16T20:38:22.244Z,23.67
2022-12-16T20:41:15.503Z,20.73
2022-12-16T20:44:00.769Z,21.85
2022-12-16T20:46:47.833Z,24.40
2022-12-16T20:49:34.079Z,21.55
2022-12-16T20:52:19.670Z,23.02
2022-12-16T20:55:04.869Z,22.77
2022-12-16T20:57:51.732Z,24.05
2022-12-16T21:00:37.293Z,24.02
2022-12-16T21:03:25.816Z,27.00
2022-12-16T21:06:11.632Z,27.13
2022-12-16T21:08:56.722Z,29.30
2022-12-16T21:11:42.364Z,28.00
2022-12-16T21:14:29.238Z,31.63
2022-12-16T21:17:19.942Z,30.40
2022-12-16T21:20:05.456Z,31.13
2022-12-16T21:22:50.689Z,31.30
2022-12-16T21:25:38.546Z,32.22
2022-12-16T21:28:23.777Z,31.27
2022-12-16T21:31:10.373Z,32.20
2022-12-16T21:33:55.540Z,35.58
2022-12-16T21:36:40.962Z,37.70
2022-12-16T21:39:26.225Z,36.70
2022-12-16T21:42:11.842Z,43.50
2022-12-16T21:44:57.183Z,42.85
2022-12-16T21:47:43.995Z,41.65
2022-12-16T21:50:29.188Z,39.72
2022-12-16T21:53:14.361Z,41.35
2022-12-16T21:55:59.514Z,41.42
2022-12-16T21:58:44.919Z,40.08
2022-12-16T22:01:32.374Z,49.50
2022-12-16T22:04:18.975Z,55.75
2022-12-16T22:07:04.546Z,58.70
2022-12-16T22:09:49.910Z,57.42
2022-12-16T22:12:35.184Z,49.70
2022-12-16T22:15:25.735Z,49.08
2022-12-16T22:18:11.077Z,48.45
2022-12-16T22:20:57.634Z,53.03
2022-12-16T22:23:47.073Z,48.05
2022-12-16T22:26:32.529Z,49.47
2022-12-16T22:29:18.498Z,51.20
2022-12-16T22:32:03.860Z,47.28
2022-12-16T22:34:49.036Z,47.03
2022-12-16T22:36:20.555Z,25.00
2022-12-16T22:37:34.821Z,47.28
2022-12-16T22:40:20.321Z,47.45
2022-12-16T22:43:06.760Z,46.97
2022-12-16T22:45:52.288Z,58.33
2022-12-16T22:48:37.569Z,65.82
2022-12-16T22:51:27.862Z,75.38
2022-12-16T22:54:14.629Z,76.00
2022-12-16T22:56:59.743Z,68.95
2022-12-16T22:59:45.242Z,65.13
2022-12-16T23:02:30.682Z,54.20
2022-12-16T23:05:16.392Z,54.88
2022-12-16T23:08:01.833Z,55.45
2022-12-16T23:10:48.403Z,54.20
2022-12-16T23:13:34.029Z,53.92
2022-12-16T23:16:27.637Z,55.10
2022-12-16T23:19:18.690Z,47.55
2022-12-16T23:22:09.972Z,47.60
2022-12-16T23:25:05.802Z,48.23
2022-12-16T23:27:55.202Z,56.43
2022-12-16T23:30:46.156Z,56.33
2022-12-16T23:33:37.724Z,52.08
2022-12-16T23:36:39.312Z,52.53
2022-12-16T23:39:36.061Z,53.08
2022-12-16T23:42:42.342Z,50.85
2022-12-16T23:45:32.301Z,52.65
2022-12-16T23:51:08.892Z,60.60
2022-12-16T23:54:05.453Z,61.45
2022-12-16T23:56:56.382Z,57.85
2022-12-16T23:59:53.291Z,60.95
